Paragould, AR (72450)

3:30 AM CDT on April 02, 2015 (GMT -0500)
Carriage Hill | | Change Station
CLOSE
Current Station
Personal Weather Station
Location: Paragould, AR
Elevation: 300 ft
Nearby Weather Stations

Elev 300 ft 36.00 °N, 90.53 °W | Updated 28 minutes ago

Overcast
Overcast
61.3 °F
Feels Like 61.3 °F
N
2.2
Wind Variable Wind from ESE

Today
High -- | Low -- °F
--% Chance of Precip.
Yesterday
High -- | Low -- °F
Precip. -- in
6:47 AM 7:24 PM
Waxing Gibbous, 96% visible
Pressure 29.86 in
Visibility 10.0 miles
Clouds
Dew Point 60 °F
Humidity 96%
Rainfall 0.51 in
Snow Depth Not available.
UV Not available.
Pollen 10.60 out of 12
Air Quality Not available.
Flu Activity Not available.
METAR K4M9 020815Z AUTO 20007KT 10SM VCTS 17/15 A2986 RMK AO2 LTG DSNT N AND NW

More Conditions Fewer Conditions

Pressure 29.86 in
Visibility 10.0 miles
Clouds
Dew Point 60 °F
Humidity 96%
Rainfall 0.51 in
Snow Depth Not available.
UV Not available.
Pollen 10.60 out of 12
Air Quality Not available.
Flu Activity Not available.
METAR K4M9 020815Z AUTO 20007KT 10SM VCTS 17/15 A2986 RMK AO2 LTG DSNT N AND NW

More Conditions Fewer Conditions

10-Day Weather Forecast

Almanac

Astronomy

Apr. 02, 2015 Rise Set
Actual Time
Civil Twilight
Nautical Twilight
Astronomical Twilight
Moon
Length of Visible Light
Length of Day
Tomorrow will be .
, % of the Moon is Illuminated

Today's Extremes

State Highs State Lows

Community

WunderPhotos

Upload Photos

1,810,207 photos uploaded!

WunderBlogs® & News

Nearby

Air Quality

  Air Quality AQ Index Pollutant
Not available.

Snow Depth

Station Depth Elevation

Earthquake Activity

City Distance Mag. Time & Date
Minimum magnitude displayed is 2.5.

Coastal Water Temperatures

Place Temperature

Stations

Nearby Weather Stations

Station Location Temp. Windchill Dew Point Humidity Wind Precip. Elev Updated Type